createdAt,value
2022-10-13T00:01:58.217Z,5.95
2022-10-13T00:04:24.742Z,5.72
2022-10-13T00:06:51.282Z,5.55
2022-10-13T00:09:17.800Z,5.85
2022-10-13T00:11:44.365Z,5.47
2022-10-13T00:14:11.014Z,5.82
2022-10-13T00:16:37.689Z,5.85
2022-10-13T00:19:04.302Z,5.53
2022-10-13T00:21:31.013Z,5.70
2022-10-13T00:23:57.813Z,6.05
2022-10-13T00:26:25.821Z,5.90
2022-10-13T00:28:53.310Z,5.45
2022-10-13T00:31:24.948Z,5.88
2022-10-13T00:33:52.873Z,5.57
2022-10-13T00:36:21.318Z,5.65
2022-10-13T00:38:47.868Z,6.72
2022-10-13T00:41:14.907Z,5.38
2022-10-13T00:46:35.652Z,6.05
2022-10-13T00:49:09.708Z,5.93
2022-10-13T00:51:42.356Z,5.53
2022-10-13T00:54:11.515Z,5.65
2022-10-13T00:56:39.665Z,5.90
2022-10-13T00:59:13.647Z,5.40
2022-10-13T01:01:40.266Z,5.50
2022-10-13T01:04:06.908Z,5.30
2022-10-13T01:06:34.404Z,6.82
2022-10-13T01:09:00.897Z,5.43
2022-10-13T01:22:18.599Z,5.32
2022-10-13T01:25:03.266Z,5.93
2022-10-13T01:30:19.403Z,7.45
2022-10-13T01:38:33.960Z,8.15
2022-10-13T01:41:27.280Z,6.28
2022-10-13T01:46:43.928Z,6.40
2022-10-13T01:49:14.543Z,5.93
2022-10-13T01:51:42.246Z,5.93
2022-10-13T01:54:09.002Z,6.28
2022-10-13T01:56:35.597Z,6.13
2022-10-13T01:59:10.406Z,5.57
2022-10-13T02:07:32.578Z,8.10
2022-10-13T02:10:39.057Z,8.15
2022-10-13T02:13:08.536Z,8.43
2022-10-13T02:15:40.649Z,7.68
2022-10-13T02:18:09.403Z,8.02
2022-10-13T02:20:36.769Z,8.43
2022-10-13T02:23:09.528Z,8.80
2022-10-13T02:25:36.874Z,8.18
2022-10-13T02:28:04.211Z,6.55
2022-10-13T02:30:33.458Z,8.80
2022-10-13T02:33:02.850Z,8.25
2022-10-13T02:35:31.007Z,7.60
2022-10-13T02:37:57.560Z,6.60
2022-10-13T02:40:24.764Z,7.88
2022-10-13T02:42:51.411Z,7.93
2022-10-13T02:45:17.961Z,7.43
2022-10-13T02:47:44.660Z,8.55
2022-10-13T02:50:11.586Z,7.63
2022-10-13T02:52:38.342Z,7.93
2022-10-13T02:55:05.682Z,9.68
2022-10-13T02:57:32.624Z,8.18
2022-10-13T02:59:59.633Z,8.73
2022-10-13T03:02:27.601Z,8.73
2022-10-13T03:04:54.649Z,8.27
2022-10-13T03:07:21.206Z,7.95
2022-10-13T03:09:47.777Z,8.38
2022-10-13T03:12:14.317Z,8.70
2022-10-13T03:14:40.887Z,9.73
2022-10-13T03:17:12.462Z,9.90
2022-10-13T03:19:39.912Z,8.93
2022-10-13T03:22:06.533Z,10.00
2022-10-13T03:24:33.065Z,9.02
2022-10-13T03:26:59.577Z,9.07
2022-10-13T03:29:26.213Z,8.77
2022-10-13T03:31:52.722Z,9.00
2022-10-13T03:34:20.346Z,9.18
2022-10-13T03:36:47.085Z,8.23
2022-10-13T03:39:14.027Z,8.20
2022-10-13T03:41:40.552Z,8.57
2022-10-13T03:44:07.625Z,8.70
2022-10-13T03:46:34.239Z,8.63
2022-10-13T03:49:00.870Z,8.43
2022-10-13T03:51:27.415Z,8.40
2022-10-13T03:53:54.257Z,8.43
2022-10-13T03:56:25.227Z,7.82
2022-10-13T03:58:55.398Z,8.40
2022-10-13T04:01:23.627Z,9.93
2022-10-13T04:03:52.202Z,9.35
2022-10-13T04:06:18.758Z,8.93
2022-10-13T04:08:45.324Z,9.07
2022-10-13T04:11:14.142Z,8.52
2022-10-13T04:13:41.531Z,10.00
2022-10-13T04:16:13.734Z,8.30
2022-10-13T04:18:44.498Z,8.43
2022-10-13T04:21:15.003Z,7.78
2022-10-13T04:23:41.654Z,7.82
2022-10-13T04:26:16.371Z,6.10
2022-10-13T04:28:42.967Z,8.13
2022-10-13T04:31:09.744Z,8.50
2022-10-13T04:33:36.386Z,8.13
2022-10-13T04:36:05.528Z,7.30
2022-10-13T04:38:32.193Z,7.95
2022-10-13T04:40:58.771Z,8.10
2022-10-13T04:43:25.313Z,8.50
2022-10-13T04:45:51.875Z,5.88
2022-10-13T04:48:18.388Z,7.75
2022-10-13T04:50:45.006Z,8.52
2022-10-13T04:53:14.245Z,7.80
2022-10-13T04:55:44.746Z,7.55
2022-10-13T04:58:11.275Z,8.25
2022-10-13T05:00:37.834Z,8.00
2022-10-13T05:03:04.435Z,8.38
2022-10-13T05:05:30.986Z,7.90
2022-10-13T05:07:57.522Z,8.48
2022-10-13T05:10:24.087Z,7.75
2022-10-13T05:12:51.681Z,5.53
2022-10-13T05:15:18.256Z,7.78
2022-10-13T05:17:44.881Z,7.70
2022-10-13T05:20:11.945Z,9.45
2022-10-13T05:22:38.537Z,7.85
2022-10-13T05:25:05.406Z,9.52
2022-10-13T05:27:31.952Z,9.45
2022-10-13T05:29:58.561Z,9.10
2022-10-13T05:32:25.172Z,9.15
2022-10-13T05:34:51.794Z,12.88
2022-10-13T05:37:18.433Z,11.98
2022-10-13T05:39:48.775Z,8.10
2022-10-13T05:42:15.573Z,10.80
2022-10-13T05:44:42.859Z,8.32
2022-10-13T05:47:09.376Z,7.28
2022-10-13T05:49:39.645Z,7.25
2022-10-13T05:52:10.362Z,7.25
2022-10-13T05:54:42.163Z,8.60
2022-10-13T05:57:17.705Z,8.23
2022-10-13T05:59:52.437Z,7.82
2022-10-13T06:02:24.175Z,9.10
2022-10-13T06:04:53.886Z,8.75
2022-10-13T06:07:20.730Z,8.88
2022-10-13T06:09:47.352Z,7.65
2022-10-13T06:12:13.946Z,7.93
2022-10-13T06:14:40.531Z,6.30
2022-10-13T06:17:07.871Z,7.25
2022-10-13T06:19:34.600Z,6.78
2022-10-13T06:22:03.633Z,7.20
2022-10-13T06:24:30.569Z,6.55
2022-10-13T06:26:57.228Z,7.18
2022-10-13T06:29:23.820Z,7.38
2022-10-13T06:31:50.544Z,7.43
2022-10-13T06:34:17.085Z,7.57
2022-10-13T06:36:43.690Z,6.80
2022-10-13T06:39:10.389Z,7.88
2022-10-13T06:41:36.936Z,7.63
2022-10-13T06:44:03.669Z,8.68
2022-10-13T06:46:30.234Z,6.60
2022-10-13T06:48:56.746Z,6.70
2022-10-13T06:51:23.321Z,7.65
2022-10-13T06:53:49.885Z,6.85
2022-10-13T06:56:16.449Z,7.63
2022-10-13T06:58:42.987Z,7.80
2022-10-13T07:01:12.822Z,7.18
2022-10-13T07:03:39.362Z,6.38
2022-10-13T07:06:07.429Z,7.38
2022-10-13T07:08:34.981Z,6.30
2022-10-13T07:11:15.914Z,7.07
2022-10-13T07:13:46.473Z,6.50
2022-10-13T07:16:14.853Z,7.35
2022-10-13T07:18:41.599Z,7.95
2022-10-13T07:21:08.170Z,7.80
2022-10-13T07:23:34.777Z,4.80
2022-10-13T07:26:01.902Z,6.55
2022-10-13T07:28:28.709Z,6.70
2022-10-13T07:30:55.570Z,7.18
2022-10-13T07:33:22.650Z,7.35
2022-10-13T07:35:49.311Z,7.20
2022-10-13T07:38:16.006Z,6.68
2022-10-13T07:40:42.591Z,7.13
2022-10-13T07:43:09.185Z,8.05
2022-10-13T07:45:36.170Z,6.43
2022-10-13T07:48:02.776Z,6.60
2022-10-13T07:50:29.902Z,8.23
2022-10-13T07:52:56.495Z,8.07
2022-10-13T07:55:23.141Z,6.97
2022-10-13T07:57:49.682Z,6.63
2022-10-13T08:00:16.684Z,7.18
2022-10-13T08:02:43.223Z,7.13
2022-10-13T08:05:09.926Z,7.60
2022-10-13T08:07:39.279Z,5.72
2022-10-13T08:10:06.412Z,7.60
2022-10-13T08:12:35.575Z,7.25
2022-10-13T08:15:06.062Z,7.05
2022-10-13T08:17:33.328Z,6.80
2022-10-13T08:19:59.924Z,7.47
2022-10-13T08:22:28.447Z,8.07
2022-10-13T08:24:56.014Z,7.53
2022-10-13T08:27:32.830Z,7.72
2022-10-13T08:30:11.811Z,6.65
2022-10-13T08:32:38.385Z,6.18
2022-10-13T08:35:05.288Z,6.57
2022-10-13T08:37:31.905Z,7.70
2022-10-13T08:39:59.193Z,6.63
2022-10-13T08:42:25.812Z,7.32
2022-10-13T08:50:26.250Z,4.10
2022-10-13T08:53:04.594Z,4.20
2022-10-13T08:55:39.637Z,3.80
2022-10-13T08:58:14.872Z,3.85
2022-10-13T09:00:42.033Z,3.50
2022-10-13T09:03:22.664Z,4.07
2022-10-13T09:08:54.346Z,3.83
2022-10-13T09:11:21.199Z,3.75
2022-10-13T09:13:47.787Z,3.67
2022-10-13T09:16:15.397Z,3.67
2022-10-13T09:18:42.094Z,3.85
2022-10-13T09:21:11.326Z,3.42
2022-10-13T09:23:41.041Z,4.45
2022-10-13T09:26:16.071Z,4.20
2022-10-13T09:28:42.880Z,3.50
2022-10-13T09:31:24.695Z,4.60
2022-10-13T09:33:59.316Z,3.35
2022-10-13T09:36:26.292Z,3.28
2022-10-13T09:39:14.109Z,3.63
2022-10-13T09:41:42.310Z,3.85
2022-10-13T09:44:16.658Z,3.10
2022-10-13T09:46:55.400Z,3.10
2022-10-13T09:52:02.818Z,2.67
2022-10-13T09:57:41.993Z,3.40
2022-10-13T10:00:21.901Z,3.33
2022-10-13T10:05:57.628Z,5.85
2022-10-13T10:14:32.854Z,2.67
2022-10-13T10:17:31.003Z,2.88
2022-10-13T10:23:13.980Z,4.75
2022-10-13T10:25:47.107Z,4.82
2022-10-13T10:28:53.469Z,4.35
2022-10-13T10:39:55.086Z,2.85
2022-10-13T10:45:01.527Z,4.05
2022-10-13T10:47:36.343Z,3.13
2022-10-13T10:50:06.410Z,3.60
2022-10-13T10:55:30.165Z,3.40
2022-10-13T11:00:55.662Z,2.42
2022-10-13T11:08:47.539Z,2.95
2022-10-13T11:11:36.428Z,3.22
2022-10-13T11:19:39.310Z,2.20
2022-10-13T11:27:26.221Z,2.55
2022-10-13T11:29:57.303Z,2.30
2022-10-13T11:40:34.196Z,2.60
2022-10-13T11:51:53.494Z,3.20
2022-10-13T11:54:41.660Z,3.00
2022-10-13T11:57:20.259Z,4.03
2022-10-13T11:59:49.335Z,4.32
2022-10-13T12:02:19.162Z,3.30
2022-10-13T12:07:40.517Z,2.40
2022-10-13T12:10:17.367Z,2.03
2022-10-13T12:12:49.544Z,1.80
2022-10-13T12:18:30.004Z,1.55
2022-10-13T12:20:59.490Z,2.35
2022-10-13T12:23:27.132Z,1.50
2022-10-13T12:25:58.482Z,1.45
2022-10-13T12:28:28.133Z,1.50
2022-10-13T12:30:59.029Z,1.20
2022-10-13T12:36:17.705Z,2.70
2022-10-13T12:38:49.599Z,2.95
2022-10-13T12:41:20.078Z,1.85
2022-10-13T12:43:46.806Z,2.35
2022-10-13T12:46:13.403Z,1.77
2022-10-13T12:48:40.330Z,2.63
2022-10-13T12:53:52.469Z,2.47
2022-10-13T12:56:27.607Z,2.75
2022-10-13T12:58:54.963Z,2.72
2022-10-13T13:01:30.334Z,2.67
2022-10-13T13:04:01.277Z,3.10
2022-10-13T13:06:33.349Z,2.88
2022-10-13T13:09:18.790Z,3.15
2022-10-13T13:11:45.406Z,3.35
2022-10-13T13:14:35.695Z,1.50
2022-10-13T13:19:49.972Z,2.10
2022-10-13T13:22:16.714Z,1.55
2022-10-13T13:24:43.710Z,1.40
2022-10-13T13:27:28.018Z,1.83
2022-10-13T13:29:55.850Z,2.63
2022-10-13T13:32:25.387Z,3.08
2022-10-13T13:34:52.003Z,2.38
2022-10-13T13:37:37.584Z,2.58
2022-10-13T13:40:05.666Z,3.03
2022-10-13T13:42:33.036Z,2.67
2022-10-13T13:44:59.622Z,2.70
2022-10-13T13:47:28.660Z,2.17
2022-10-13T13:49:56.452Z,2.20
2022-10-13T13:52:25.312Z,2.00
2022-10-13T13:54:52.635Z,2.47
2022-10-13T13:57:20.340Z,1.98
2022-10-13T13:59:47.567Z,2.13
2022-10-13T14:02:18.850Z,1.90
2022-10-13T14:04:45.845Z,2.05
2022-10-13T14:07:12.885Z,2.67
2022-10-13T14:09:39.445Z,2.42
2022-10-13T14:12:06.140Z,2.38
2022-10-13T14:14:33.114Z,4.47
2022-10-13T14:17:01.227Z,2.40
2022-10-13T14:19:27.870Z,3.67
2022-10-13T14:21:54.425Z,3.65
2022-10-13T14:24:21.156Z,3.20
2022-10-13T14:26:47.720Z,2.70
2022-10-13T14:29:14.741Z,2.40
2022-10-13T14:31:41.432Z,1.63
2022-10-13T14:34:08.186Z,2.05
2022-10-13T14:36:34.968Z,2.58
2022-10-13T14:39:01.511Z,2.00
2022-10-13T14:41:28.162Z,1.77
2022-10-13T14:43:56.145Z,1.60
2022-10-13T14:46:23.357Z,3.08
2022-10-13T14:48:50.319Z,1.92
2022-10-13T14:51:17.369Z,2.55
2022-10-13T14:53:45.379Z,1.80
2022-10-13T14:56:17.614Z,1.88
2022-10-13T14:58:44.592Z,1.65
2022-10-13T15:01:11.193Z,1.50
2022-10-13T15:03:37.818Z,2.40
2022-10-13T15:06:04.547Z,2.25
2022-10-13T15:08:31.099Z,2.00
2022-10-13T15:11:02.565Z,1.73
2022-10-13T15:13:29.935Z,2.10
2022-10-13T15:15:57.686Z,2.35
2022-10-13T15:18:28.982Z,2.45
2022-10-13T15:20:55.889Z,2.10
2022-10-13T15:23:22.723Z,2.70
2022-10-13T15:25:51.249Z,3.22
2022-10-13T15:28:18.221Z,3.05
2022-10-13T15:30:45.717Z,3.55
2022-10-13T15:33:12.247Z,3.35
2022-10-13T15:35:38.811Z,3.35
2022-10-13T15:38:05.421Z,3.35
2022-10-13T15:40:33.690Z,3.90
2022-10-13T15:43:00.550Z,3.17
2022-10-13T15:45:27.407Z,2.97
2022-10-13T15:47:53.930Z,3.95
2022-10-13T15:50:20.648Z,3.60
2022-10-13T15:52:47.209Z,4.30
2022-10-13T15:55:13.918Z,4.68
2022-10-13T15:57:40.582Z,3.60
2022-10-13T16:00:09.697Z,3.70
2022-10-13T16:02:36.356Z,3.78
2022-10-13T16:05:05.331Z,4.18
2022-10-13T16:07:32.544Z,4.10
2022-10-13T16:09:59.283Z,4.25
2022-10-13T16:12:28.001Z,3.85
2022-10-13T16:14:54.861Z,3.55
2022-10-13T16:17:21.875Z,3.90
2022-10-13T16:19:48.717Z,3.25
2022-10-13T16:22:15.415Z,3.90
2022-10-13T16:24:41.954Z,5.88
2022-10-13T16:27:08.557Z,4.07
2022-10-13T16:29:35.138Z,3.88
2022-10-13T16:32:01.694Z,4.72
2022-10-13T16:34:28.234Z,3.97
2022-10-13T16:36:54.961Z,4.25
2022-10-13T16:39:23.373Z,4.00
2022-10-13T16:41:51.299Z,3.83
2022-10-13T16:44:18.156Z,4.82
2022-10-13T16:46:45.314Z,3.50
2022-10-13T16:49:12.934Z,3.67
2022-10-13T16:51:39.490Z,4.18
2022-10-13T16:54:06.243Z,3.95
2022-10-13T16:56:33.207Z,3.38
2022-10-13T16:59:04.017Z,4.00
2022-10-13T17:01:32.536Z,3.55
2022-10-13T17:03:59.198Z,4.72
2022-10-13T17:06:27.847Z,3.97
2022-10-13T17:08:55.219Z,4.45
2022-10-13T17:11:25.064Z,4.55
2022-10-13T17:16:19.297Z,4.93
2022-10-13T17:18:46.573Z,4.15
2022-10-13T17:21:16.027Z,4.38
2022-10-13T17:23:48.115Z,5.25
2022-10-13T17:26:16.984Z,5.53
2022-10-13T17:28:43.707Z,3.78
2022-10-13T17:33:50.071Z,4.35
2022-10-13T17:38:56.314Z,6.28
2022-10-13T17:41:24.264Z,5.60
2022-10-13T17:43:52.024Z,6.20
2022-10-13T17:46:36.288Z,5.10
2022-10-13T17:49:04.590Z,7.47
2022-10-13T17:51:31.222Z,3.65
2022-10-13T17:53:59.609Z,5.03
2022-10-13T17:56:26.864Z,5.50
2022-10-13T17:58:53.872Z,5.57
2022-10-13T18:01:24.527Z,5.20
2022-10-13T18:03:54.364Z,5.60
2022-10-13T18:06:22.249Z,5.93
2022-10-13T18:08:50.605Z,4.28
2022-10-13T18:11:19.872Z,6.25
2022-10-13T18:13:47.001Z,5.93
2022-10-13T18:16:18.214Z,6.18
2022-10-13T18:18:45.757Z,3.97
2022-10-13T18:21:14.663Z,5.55
2022-10-13T18:23:42.050Z,5.97
2022-10-13T18:26:12.557Z,6.43
2022-10-13T18:28:40.523Z,7.13
2022-10-13T18:31:09.863Z,6.28
2022-10-13T18:33:36.853Z,6.43
2022-10-13T18:36:23.697Z,5.28
2022-10-13T18:38:52.098Z,6.85
2022-10-13T18:41:22.251Z,7.35
2022-10-13T18:43:48.921Z,6.25
2022-10-13T18:46:15.461Z,6.28
2022-10-13T18:48:42.265Z,7.38
2022-10-13T18:51:13.265Z,6.15
2022-10-13T18:53:43.633Z,6.00
2022-10-13T18:56:14.294Z,7.22
2022-10-13T18:58:41.341Z,5.05
2022-10-13T19:01:10.352Z,5.70
2022-10-13T19:03:38.635Z,5.45
2022-10-13T19:06:07.363Z,6.35
2022-10-13T19:08:34.751Z,6.28
2022-10-13T19:11:01.597Z,5.38
2022-10-13T19:13:28.263Z,5.47
2022-10-13T19:16:02.930Z,5.43
2022-10-13T19:18:29.757Z,6.65
2022-10-13T19:20:56.360Z,7.25
2022-10-13T19:23:22.973Z,5.82
2022-10-13T19:25:49.786Z,5.15
2022-10-13T19:28:16.709Z,5.90
2022-10-13T19:30:43.766Z,5.35
2022-10-13T19:33:12.281Z,5.47
2022-10-13T19:35:45.240Z,5.55
2022-10-13T19:38:12.319Z,5.97
2022-10-13T19:40:43.587Z,6.13
2022-10-13T19:43:11.107Z,6.28
2022-10-13T19:45:44.479Z,6.10
2022-10-13T19:48:11.116Z,5.57
2022-10-13T19:50:37.891Z,5.18
2022-10-13T19:53:05.000Z,5.60
2022-10-13T19:55:36.912Z,5.88
2022-10-13T19:58:03.493Z,5.55
2022-10-13T20:00:30.256Z,5.57
2022-10-13T20:02:56.796Z,5.25
2022-10-13T20:05:25.447Z,5.60
2022-10-13T20:07:52.280Z,5.43
2022-10-13T20:10:18.903Z,4.75
2022-10-13T20:12:45.491Z,4.97
2022-10-13T20:15:12.223Z,5.38
2022-10-13T20:17:38.777Z,6.25
2022-10-13T20:20:06.590Z,5.72
2022-10-13T20:22:33.697Z,5.30
2022-10-13T20:25:00.258Z,5.38
2022-10-13T20:27:26.868Z,5.10
2022-10-13T20:29:53.389Z,4.88
2022-10-13T20:32:20.069Z,5.13
2022-10-13T20:34:46.689Z,5.18
2022-10-13T20:37:13.250Z,5.45
2022-10-13T20:39:39.883Z,4.45
2022-10-13T20:42:06.539Z,5.13
2022-10-13T20:44:33.229Z,6.07
2022-10-13T20:47:00.213Z,5.03
2022-10-13T20:49:27.123Z,5.82
2022-10-13T20:51:53.690Z,5.38
2022-10-13T20:54:20.492Z,3.92
2022-10-13T20:56:47.337Z,5.15
2022-10-13T20:59:15.625Z,5.88
2022-10-13T21:01:42.518Z,5.60
2022-10-13T21:04:09.120Z,5.45
2022-10-13T21:06:36.520Z,4.72
2022-10-13T21:09:05.581Z,5.15
2022-10-13T21:11:32.562Z,5.35
2022-10-13T21:13:59.129Z,5.45
2022-10-13T21:16:27.926Z,6.25
2022-10-13T21:18:56.154Z,4.82
2022-10-13T21:21:26.727Z,5.45
2022-10-13T21:23:56.691Z,6.45
2022-10-13T21:28:51.626Z,4.80
2022-10-13T21:31:20.740Z,5.60
2022-10-13T21:33:48.174Z,5.38
2022-10-13T21:36:18.743Z,6.55
2022-10-13T21:38:49.989Z,6.00
2022-10-13T21:41:16.605Z,6.35
2022-10-13T21:43:43.231Z,4.72
2022-10-13T21:46:12.187Z,5.57
2022-10-13T21:48:39.366Z,4.90
2022-10-13T21:53:56.693Z,3.85
2022-10-13T21:56:23.894Z,4.03
2022-10-13T21:58:50.595Z,3.70
2022-10-13T22:01:18.647Z,4.03
2022-10-13T22:03:47.559Z,3.97
2022-10-13T22:06:18.972Z,3.80
2022-10-13T22:08:48.373Z,4.32
2022-10-13T22:11:15.856Z,3.90
2022-10-13T22:13:42.398Z,4.40
2022-10-13T22:16:19.033Z,3.65
2022-10-13T22:18:45.966Z,4.10
2022-10-13T22:21:16.000Z,3.40
2022-10-13T22:26:10.122Z,3.80
2022-10-13T22:28:37.681Z,4.28
2022-10-13T22:31:06.366Z,4.05
2022-10-13T22:33:34.734Z,4.35
2022-10-13T22:36:06.387Z,4.00
2022-10-13T22:38:32.916Z,4.30
2022-10-13T22:41:04.153Z,4.10
2022-10-13T22:43:30.902Z,4.10
2022-10-13T22:45:57.707Z,3.88
2022-10-13T22:48:24.550Z,4.88
2022-10-13T22:50:51.096Z,5.13
2022-10-13T22:53:17.718Z,3.67
2022-10-13T22:55:44.321Z,4.60
2022-10-13T22:58:10.908Z,4.72
2022-10-13T23:00:38.687Z,4.50
2022-10-13T23:03:06.080Z,4.85
2022-10-13T23:05:32.757Z,4.35
2022-10-13T23:07:59.429Z,3.95
2022-10-13T23:10:26.078Z,4.57
2022-10-13T23:12:52.613Z,4.75
2022-10-13T23:15:19.198Z,3.70
2022-10-13T23:17:45.779Z,4.10
2022-10-13T23:20:12.700Z,5.18
2022-10-13T23:22:39.223Z,4.00
2022-10-13T23:25:06.133Z,4.63
2022-10-13T23:27:32.717Z,4.35
2022-10-13T23:29:59.233Z,4.47
2022-10-13T23:32:25.879Z,4.05
2022-10-13T23:34:52.415Z,4.10
2022-10-13T23:37:19.194Z,4.68
2022-10-13T23:39:46.042Z,3.75
2022-10-13T23:42:12.581Z,4.03
2022-10-13T23:44:39.174Z,4.38
2022-10-13T23:47:05.731Z,3.70
2022-10-13T23:49:32.313Z,4.15
2022-10-13T23:51:58.919Z,3.70
2022-10-13T23:54:25.503Z,4.50
2022-10-13T23:56:52.043Z,3.95
2022-10-13T23:59:18.631Z,4.10
